Panther Z — SVA6026 — position and weather

sailwx.info

Track history (hours):
 
Tides and Currents Weather Stations Pressure Air Temp Water Temp Dewpoint Dewpoint Depression Visibility Wind Speed Wind Dir Waves Ship Positions

Panther Z

Last reported at 2018-Jun-19 06:30 UTC. Time now 2018-Jun-19 06:43 UTC.
Position N 38°01' E 023°36'.

Length 30 m; draft 4 m.

Type: Tug. MMSI: 239842700.

Date/timePositionNaut miles runAvg speedWind from/ knotsBaromVisibWave heightAir tempDewpointWater temp
2018-Jun-19 06:30N 38°01' E 023°36'0 0.0
2018-Jun-19 06:00N 38°01' E 023°36'0 0.0
2018-Jun-19 05:31N 38°01' E 023°36'0 0.0
2018-Jun-19 05:00N 38°01' E 023°36'0 0.0
2018-Jun-19 04:30N 38°01' E 023°36'0 0.0
2018-Jun-19 04:00N 38°01' E 023°36'0 0.0
2018-Jun-19 03:30N 38°01' E 023°35'0 0.0
2018-Jun-19 03:00N 38°01' E 023°35'0 0.0
2018-Jun-19 02:30N 38°01' E 023°36'0 0.0
2018-Jun-19 02:00N 38°01' E 023°35'0 0.0
2018-Jun-19 01:30N 38°01' E 023°36'0 0.0
2018-Jun-19 01:00N 38°01' E 023°36'0 0.0
2018-Jun-19 00:30N 38°01' E 023°36'0 0.0
2018-Jun-19 00:00N 38°01' E 023°36'0 0.0
2018-Jun-18 23:30N 38°01' E 023°35'0 0.0
2018-Jun-18 23:00N 38°01' E 023°36'0 0.0
2018-Jun-18 22:30N 38°01' E 023°35'0 0.0
2018-Jun-18 22:00N 38°01' E 023°35'0 0.0
2018-Jun-18 21:30N 38°01' E 023°36'0 0.0
2018-Jun-18 21:00N 38°01' E 023°36'0 0.0
2018-Jun-18 20:30N 38°01' E 023°36'0 0.0
2018-Jun-18 20:00N 38°01' E 023°36'0 0.0
2018-Jun-18 19:30N 38°01' E 023°35'0 0.0
2018-Jun-18 19:01N 38°01' E 023°36'0 0.0
2018-Jun-18 18:30N 38°01' E 023°35'0 0.0
2018-Jun-18 18:00N 38°01' E 023°36'0 0.0
2018-Jun-18 17:30N 38°01' E 023°36'0 0.0
2018-Jun-18 16:59N 38°01' E 023°36'0 0.0
2018-Jun-18 16:29N 38°01' E 023°36'0 0.0
2018-Jun-18 16:00N 38°01' E 023°36'0 0.0
2018-Jun-18 15:30N 38°01' E 023°36'0 0.0
2018-Jun-18 15:00N 38°01' E 023°36'0 0.0
2018-Jun-18 14:30N 38°01' E 023°36'0 0.0
2018-Jun-18 14:00N 38°01' E 023°36'0 0.0
2018-Jun-18 13:31N 38°01' E 023°35'0 0.0
2018-Jun-18 13:00N 38°01' E 023°35'0 0.1
2018-Jun-18 12:30N 38°02' E 023°35'0 0.4
2018-Jun-18 12:01N 38°02' E 023°36'2 3.6
2018-Jun-18 11:31N 38°01' E 023°34'0 0.5
2018-Jun-18 11:01N 38°01' E 023°34'4 7.1
2018-Jun-18 10:30N 37°57' E 023°34'1 1.2
2018-Jun-18 10:00N 37°58' E 023°34'2 4.7
2018-Jun-18 09:30N 37°58' E 023°37'1 2.8
2018-Jun-18 09:01N 37°56' E 023°38'0 0.3
2018-Jun-18 08:30N 37°56' E 023°38'0 0.0
2018-Jun-18 08:00N 37°56' E 023°38'0 0.0
2018-Jun-18 07:30N 37°56' E 023°38'0 0.0
2018-Jun-18 07:00N 37°56' E 023°38'0 0.0
2018-Jun-18 06:25N 37°56' E 023°38'0 0.0
2018-Jun-18 06:00N 37°56' E 023°38'0 0.0
2018-Jun-18 05:30N 37°56' E 023°38'1 1.8
2018-Jun-18 05:01N 37°56' E 023°37'1 2.3
2018-Jun-18 04:30N 37°57' E 023°36'2 3.9
2018-Jun-18 04:00N 37°56' E 023°38'2 3.4
2018-Jun-18 03:30N 37°56' E 023°36'2 3.7
2018-Jun-18 03:00N 37°57' E 023°36'0 0.8
2018-Jun-18 02:30N 37°58' E 023°37'0 0.0
2018-Jun-16 16:16N 37°58' E 023°37'0 0.0
2018-Jun-16 16:00N 37°58' E 023°37'0 0.0
2018-Jun-16 15:30N 37°58' E 023°37'0 0.0
2018-Jun-16 15:00N 37°58' E 023°37'0 0.0
2018-Jun-16 14:30N 37°58' E 023°37'0 0.0
2018-Jun-16 14:00N 37°58' E 023°37'0 0.0
2018-Jun-16 13:30N 37°58' E 023°37'0 0.0
2018-Jun-16 13:00N 37°58' E 023°37'0 0.0
2018-Jun-16 12:30N 37°58' E 023°37'0 0.0
2018-Jun-16 12:00N 37°58' E 023°37'0 0.6
2018-Jun-16 11:30N 37°58' E 023°36'1 1.7
2018-Jun-16 11:00N 37°57' E 023°36'1 2.0
2018-Jun-16 10:30N 37°58' E 023°37'0 0.0
2018-Jun-16 10:00N 37°58' E 023°37'0 0.0
2018-Jun-16 09:30N 37°58' E 023°37'0 0.0
2018-Jun-16 09:00N 37°58' E 023°37'0 0.0
2018-Jun-16 08:30N 37°58' E 023°37'0 0.0
2018-Jun-16 08:00N 37°58' E 023°37'3 6.4
2018-Jun-16 07:30N 37°58' E 023°33'2 4.6
2018-Jun-16 07:00N 37°57' E 023°35'1 2.7
2018-Jun-16 06:30N 37°58' E 023°37'0 0.0
2018-Jun-16 06:00N 37°58' E 023°37'0 0.0
2018-Jun-16 05:30N 37°58' E 023°37'0 0.0
2018-Jun-16 05:00N 37°58' E 023°37'0 0.0
2018-Jun-16 04:30N 37°58' E 023°37'0 0.0
2018-Jun-16 04:00N 37°58' E 023°37'0 0.0
2018-Jun-16 03:30N 37°58' E 023°37'0 0.0
2018-Jun-16 03:00N 37°58' E 023°37'0 0.0
2018-Jun-16 02:30N 37°58' E 023°37'0 0.0
2018-Jun-16 02:00N 37°58' E 023°37'0 0.0
2018-Jun-16 01:30N 37°58' E 023°37'0 0.0
2018-Jun-16 01:00N 37°58' E 023°37'0 0.0
2018-Jun-16 00:30N 37°58' E 023°37'0 0.0
2018-Jun-16 00:00N 37°58' E 023°37'0 0.0
2018-Jun-15 23:30N 37°58' E 023°37'0 0.0
2018-Jun-15 11:06N 37°58' E 023°37'0 0.1
2018-Jun-15 11:00N 37°58' E 023°37'0 0.0
2018-Jun-15 10:30N 37°58' E 023°37'0 0.0
2018-Jun-15 10:00N 37°58' E 023°37'0 0.0
2018-Jun-15 09:30N 37°58' E 023°37'1 2.9
2018-Jun-15 09:00N 37°56' E 023°38'0 0.1
2018-Jun-15 08:31N 37°56' E 023°38'0 0.1
2018-Jun-15 08:00N 37°56' E 023°38'0 0.0
2018-Jun-15 07:30N 37°56' E 023°38'0 0.0
2018-Jun-15 07:00N 37°56' E 023°38'0 0.0
2018-Jun-15 06:30N 37°56' E 023°38'0 0.0
2018-Jun-15 06:00N 37°56' E 023°38'0 0.0
2018-Jun-15 05:30N 37°56' E 023°38'0 0.0
2018-Jun-15 05:00N 37°56' E 023°38'0 0.0
2018-Jun-15 04:30N 37°56' E 023°38'0 0.0
2018-Jun-15 04:00N 37°56' E 023°38'1 1.4
2018-Jun-15 03:30N 37°56' E 023°37'0 0.5
2018-Jun-15 03:00N 37°56' E 023°37'1 2.6
2018-Jun-15 02:30N 37°58' E 023°37'0 0.0
2018-Jun-14 11:08N 37°58' E 023°37'0 0.0
2018-Jun-14 11:00N 37°58' E 023°37'0 0.0
2018-Jun-14 10:31N 37°58' E 023°37'0 0.0
2018-Jun-14 10:00N 37°58' E 023°37'0 0.0
2018-Jun-14 09:30N 37°58' E 023°37'3 6.7
2018-Jun-14 09:00N 37°57' E 023°33'0 0.0
2018-Jun-14 08:30N 37°57' E 023°33'0 0.3
2018-Jun-14 08:00N 37°57' E 023°33'0 0.2
2018-Jun-14 07:30N 37°57' E 023°33'0 0.1
2018-Jun-14 06:41N 37°57' E 023°33'0 0.0
2018-Jun-14 06:14N 37°57' E 023°33'1 2.6
2018-Jun-14 06:00N 37°57' E 023°34'1 0.1
2018-Jun-13 22:06N 37°57' E 023°35'1 8.8
2018-Jun-13 21:56N 37°57' E 023°33'3 8.0
2018-Jun-13 21:30N 38°01' E 023°34'1 2.4
2018-Jun-13 21:00N 38°01' E 023°35'0 0.0
2018-Jun-13 20:29N 38°01' E 023°36'0 0.0
2018-Jun-13 20:00N 38°01' E 023°35'0 0.0
2018-Jun-13 19:26N 38°01' E 023°35'0 0.0
2018-Jun-13 19:00N 38°01' E 023°35'0 0.0
2018-Jun-13 16:57N 38°01' E 023°35'0 0.0
2018-Jun-13 16:30N 38°01' E 023°35'0 0.0
2018-Jun-13 16:00N 38°01' E 023°35'0 0.1
2018-Jun-13 15:30N 38°02' E 023°35'0 0.1
2018-Jun-13 15:00N 38°01' E 023°35'0 0.0
2018-Jun-13 14:31N 38°01' E 023°36'0 0.0
2018-Jun-13 13:58N 38°01' E 023°36'0 0.0
2018-Jun-13 13:30N 38°01' E 023°36'0 0.0
2018-Jun-13 13:00N 38°01' E 023°35'0 0.0
2018-Jun-13 12:29N 38°01' E 023°35'0 0.0
2018-Jun-13 11:59N 38°01' E 023°35'0 0.0
2018-Jun-13 11:30N 38°01' E 023°36'0 0.0
2018-Jun-13 11:00N 38°01' E 023°35'0 0.0
2018-Jun-13 10:30N 38°01' E 023°36'0 0.0
2018-Jun-13 10:00N 38°01' E 023°35'0 0.0
2018-Jun-13 09:30N 38°01' E 023°36'0 0.0
2018-Jun-13 09:00N 38°01' E 023°36'0 0.0
2018-Jun-13 08:31N 38°01' E 023°36'0 0.0
2018-Jun-13 08:00N 38°01' E 023°36'0 0.0
2018-Jun-13 07:31N 38°01' E 023°36'0 0.0
2018-Jun-13 07:00N 38°01' E 023°36'0 0.0
2018-Jun-13 06:30N 38°01' E 023°36'0 0.0
2018-Jun-13 06:00N 38°01' E 023°36'0 0.0
2018-Jun-13 05:30N 38°01' E 023°36'0 0.0
2018-Jun-13 05:00N 38°01' E 023°36'0 0.0
2018-Jun-13 04:30N 38°01' E 023°36'0 0.0
2018-Jun-13 04:00N 38°01' E 023°35'0 0.0
2018-Jun-13 03:23N 38°01' E 023°35'0 0.0
2018-Jun-13 03:00N 38°01' E 023°36'0 0.0
2018-Jun-13 02:27N 38°01' E 023°36'0 0.0
2018-Jun-13 02:00N 38°01' E 023°35'0 0.0
2018-Jun-13 01:29N 38°01' E 023°36'0 0.0
2018-Jun-13 01:00N 38°01' E 023°36'0 0.0
2018-Jun-13 00:26N 38°01' E 023°36'0 0.0
2018-Jun-13 00:00N 38°01' E 023°36'0 0.0
2018-Jun-12 23:30N 38°01' E 023°36'0 0.0
2018-Jun-12 23:00N 38°01' E 023°35'0 0.0
2018-Jun-12 22:31N 38°01' E 023°35'0 0.0
2018-Jun-12 21:56N 38°01' E 023°36'0 0.0
2018-Jun-12 21:30N 38°01' E 023°35'0 0.1
2018-Jun-12 21:00N 38°01' E 023°35'4 7.1
2018-Jun-12 20:30N 37°59' E 023°33'3 5.9
2018-Jun-12 20:00N 37°57' E 023°36'0 0.8
2018-Jun-12 19:30N 37°58' E 023°37'0 0.0
2018-Jun-12 19:00N 37°58' E 023°37'0 0.0
2018-Jun-12 18:31N 37°58' E 023°37'0 0.0
2018-Jun-12 18:00N 37°58' E 023°37'0 0.0
2018-Jun-12 17:30N 37°58' E 023°37'0 0.0
2018-Jun-12 17:01N 37°58' E 023°37'0 0.0
2018-Jun-12 16:31N 37°58' E 023°37'0 0.0
2018-Jun-12 16:01N 37°58' E 023°37'0 0.0
2018-Jun-12 15:31N 37°58' E 023°37'0 0.0
2018-Jun-12 15:00N 37°58' E 023°37'0 0.0
2018-Jun-12 14:30N 37°58' E 023°37'1 2.3
2018-Jun-12 14:00N 37°57' E 023°35'1 1.9
2018-Jun-12 13:31N 37°58' E 023°34'0 0.5
2018-Jun-12 13:01N 37°57' E 023°34'1 2.5
2018-Jun-12 12:30N 37°57' E 023°36'1 1.5
2018-Jun-12 12:01N 37°58' E 023°37'0 0.0
2018-Jun-12 11:30N 37°58' E 023°37'0 0.0
2018-Jun-12 11:01N 37°58' E 023°37'1 1.2
2018-Jun-12 10:31N 37°57' E 023°36'1 1.2
2018-Jun-12 10:01N 37°58' E 023°37'0 0.0
2018-Jun-12 09:30N 37°58' E 023°37'0 0.0
2018-Jun-12 09:00N 37°58' E 023°37'0 0.0
2018-Jun-12 08:30N 37°58' E 023°37'0 0.0
2018-Jun-12 08:00N 37°58' E 023°37'0 0.0
2018-Jun-12 07:30N 37°58' E 023°37'0 0.0
2018-Jun-12 07:00N 37°58' E 023°37'0 0.0
2018-Jun-12 06:31N 37°58' E 023°37'0 0.0
2018-Jun-12 06:01N 37°58' E 023°37'0 0.0
2018-Jun-12 05:30N 37°58' E 023°37'0 0.9
2018-Jun-12 05:00N 37°58' E 023°36'1 2.4
2018-Jun-12 04:30N 37°56' E 023°36'1 2.4
2018-Jun-12 04:00N 37°56' E 023°35'2 4.9
2018-Jun-12 03:30N 37°58' E 023°37'0 0.0
2018-Jun-12 03:00N 37°58' E 023°37'0 0.0
2018-Jun-11 18:00N 37°58' E 023°37'1 2.5
2018-Jun-11 17:31N 37°57' E 023°35'0 0.1
2018-Jun-11 17:01N 37°57' E 023°35'0 0.2
2018-Jun-11 16:30N 37°57' E 023°35'2 3.7
2018-Jun-11 16:01N 37°55' E 023°37'2 3.9
2018-Jun-11 15:30N 37°57' E 023°36'1 1.2
2018-Jun-11 15:00N 37°58' E 023°37'0 0.0
2018-Jun-11 14:30N 37°58' E 023°37'0 0.0
2018-Jun-11 14:01N 37°58' E 023°37'0 0.0
2018-Jun-11 13:31N 37°58' E 023°37'0 0.0
2018-Jun-11 13:01N 37°58' E 023°37'0 0.0
2018-Jun-11 12:31N 37°58' E 023°37'0 0.0
2018-Jun-11 12:00N 37°58' E 023°37'0 0.0
2018-Jun-11 11:31N 37°58' E 023°37'0 0.0
2018-Jun-11 11:00N 37°58' E 023°37'0 0.0
2018-Jun-11 10:31N 37°58' E 023°37'0 0.0
2018-Jun-11 10:01N 37°58' E 023°37'0 0.0
2018-Jun-11 09:30N 37°58' E 023°37'0 0.0
2018-Jun-11 09:00N 37°58' E 023°37'0 0.0
2018-Jun-11 08:30N 37°58' E 023°37'0 0.0
2018-Jun-11 08:00N 37°58' E 023°37'0 0.0
2018-Jun-11 07:30N 37°58' E 023°37'0 0.0
2018-Jun-11 07:01N 37°58' E 023°37'0 0.0
2018-Jun-11 06:30N 37°58' E 023°37'0 0.0
2018-Jun-11 06:00N 37°58' E 023°37'1 1.7
2018-Jun-11 05:30N 37°57' E 023°36'0 0.4
2018-Jun-11 05:01N 37°57' E 023°36'0 0.0
2018-Jun-11 04:30N 37°57' E 023°36'0 0.0
2018-Jun-11 04:00N 37°57' E 023°36'1 2.9
2018-Jun-11 03:30N 37°56' E 023°37'1 1.7
2018-Jun-11 03:00N 37°56' E 023°37'2 4.0
2018-Jun-11 02:30N 37°58' E 023°37'0 0.0
2018-Jun-09 13:20N 37°58' E 023°37'0 0.5
2018-Jun-09 13:01N 37°57' E 023°37'3 6.1
2018-Jun-09 12:30N 37°58' E 023°33'4 7.7
2018-Jun-09 12:01N 38°01' E 023°36'0 0.1
2018-Jun-09 11:30N 38°01' E 023°36'0 0.0
2018-Jun-09 11:00N 38°01' E 023°36'0 0.0
2018-Jun-09 10:30N 38°01' E 023°35'0 0.0
2018-Jun-09 10:00N 38°01' E 023°36'0 0.0
2018-Jun-09 09:30N 38°01' E 023°36'0 0.0
2018-Jun-09 09:00N 38°01' E 023°36'0 0.0
2018-Jun-09 08:30N 38°01' E 023°35'0 0.0
2018-Jun-09 08:00N 38°01' E 023°35'0 0.0
2018-Jun-09 07:30N 38°01' E 023°35'0 0.0
2018-Jun-09 07:00N 38°01' E 023°35'  
Track history (hours):
 
Tides and Currents Weather Stations Pressure Air Temp Water Temp Dewpoint Dewpoint Depression Visibility Wind Speed Wind Dir Waves Ship Positions

Panther Z

Last reported at 2018-Jun-19 06:30 UTC. Time now 2018-Jun-19 06:43 UTC.
Position N 38°01' E 023°36'.

Length 30 m; draft 4 m.

Type: Tug. MMSI: 239842700.

Date/timePositionNaut miles runAvg speedWind from/ knotsBaromVisibWave heightAir tempDewpointWater temp
2018-Jun-19 06:30N 38°01' E 023°36'0 0.0
2018-Jun-19 06:00N 38°01' E 023°36'0 0.0
2018-Jun-19 05:31N 38°01' E 023°36'0 0.0
2018-Jun-19 05:00N 38°01' E 023°36'0 0.0
2018-Jun-19 04:30N 38°01' E 023°36'0 0.0
2018-Jun-19 04:00N 38°01' E 023°36'0 0.0
2018-Jun-19 03:30N 38°01' E 023°35'0 0.0
2018-Jun-19 03:00N 38°01' E 023°35'0 0.0
2018-Jun-19 02:30N 38°01' E 023°36'0 0.0
2018-Jun-19 02:00N 38°01' E 023°35'0 0.0
2018-Jun-19 01:30N 38°01' E 023°36'0 0.0
2018-Jun-19 01:00N 38°01' E 023°36'0 0.0
2018-Jun-19 00:30N 38°01' E 023°36'0 0.0
2018-Jun-19 00:00N 38°01' E 023°36'0 0.0
2018-Jun-18 23:30N 38°01' E 023°35'0 0.0
2018-Jun-18 23:00N 38°01' E 023°36'0 0.0
2018-Jun-18 22:30N 38°01' E 023°35'0 0.0
2018-Jun-18 22:00N 38°01' E 023°35'0 0.0
2018-Jun-18 21:30N 38°01' E 023°36'0 0.0
2018-Jun-18 21:00N 38°01' E 023°36'0 0.0
2018-Jun-18 20:30N 38°01' E 023°36'0 0.0
2018-Jun-18 20:00N 38°01' E 023°36'0 0.0
2018-Jun-18 19:30N 38°01' E 023°35'0 0.0
2018-Jun-18 19:01N 38°01' E 023°36'0 0.0
2018-Jun-18 18:30N 38°01' E 023°35'0 0.0
2018-Jun-18 18:00N 38°01' E 023°36'0 0.0
2018-Jun-18 17:30N 38°01' E 023°36'0 0.0
2018-Jun-18 16:59N 38°01' E 023°36'0 0.0
2018-Jun-18 16:29N 38°01' E 023°36'0 0.0
2018-Jun-18 16:00N 38°01' E 023°36'0 0.0
2018-Jun-18 15:30N 38°01' E 023°36'0 0.0
2018-Jun-18 15:00N 38°01' E 023°36'0 0.0
2018-Jun-18 14:30N 38°01' E 023°36'0 0.0
2018-Jun-18 14:00N 38°01' E 023°36'0 0.0
2018-Jun-18 13:31N 38°01' E 023°35'0 0.0
2018-Jun-18 13:00N 38°01' E 023°35'0 0.1
2018-Jun-18 12:30N 38°02' E 023°35'0 0.4
2018-Jun-18 12:01N 38°02' E 023°36'2 3.6
2018-Jun-18 11:31N 38°01' E 023°34'0 0.5
2018-Jun-18 11:01N 38°01' E 023°34'4 7.1
2018-Jun-18 10:30N 37°57' E 023°34'1 1.2
2018-Jun-18 10:00N 37°58' E 023°34'2 4.7
2018-Jun-18 09:30N 37°58' E 023°37'1 2.8
2018-Jun-18 09:01N 37°56' E 023°38'0 0.3
2018-Jun-18 08:30N 37°56' E 023°38'0 0.0
2018-Jun-18 08:00N 37°56' E 023°38'0 0.0
2018-Jun-18 07:30N 37°56' E 023°38'0 0.0
2018-Jun-18 07:00N 37°56' E 023°38'0 0.0
2018-Jun-18 06:25N 37°56' E 023°38'0 0.0
2018-Jun-18 06:00N 37°56' E 023°38'0 0.0
2018-Jun-18 05:30N 37°56' E 023°38'1 1.8
2018-Jun-18 05:01N 37°56' E 023°37'1 2.3
2018-Jun-18 04:30N 37°57' E 023°36'2 3.9
2018-Jun-18 04:00N 37°56' E 023°38'2 3.4
2018-Jun-18 03:30N 37°56' E 023°36'2 3.7
2018-Jun-18 03:00N 37°57' E 023°36'0 0.8
2018-Jun-18 02:30N 37°58' E 023°37'0 0.0
2018-Jun-16 16:16N 37°58' E 023°37'0 0.0
2018-Jun-16 16:00N 37°58' E 023°37'0 0.0
2018-Jun-16 15:30N 37°58' E 023°37'0 0.0
2018-Jun-16 15:00N 37°58' E 023°37'0 0.0
2018-Jun-16 14:30N 37°58' E 023°37'0 0.0
2018-Jun-16 14:00N 37°58' E 023°37'0 0.0
2018-Jun-16 13:30N 37°58' E 023°37'0 0.0
2018-Jun-16 13:00N 37°58' E 023°37'0 0.0
2018-Jun-16 12:30N 37°58' E 023°37'0 0.0
2018-Jun-16 12:00N 37°58' E 023°37'0 0.6
2018-Jun-16 11:30N 37°58' E 023°36'1 1.7
2018-Jun-16 11:00N 37°57' E 023°36'1 2.0
2018-Jun-16 10:30N 37°58' E 023°37'0 0.0
2018-Jun-16 10:00N 37°58' E 023°37'0 0.0
2018-Jun-16 09:30N 37°58' E 023°37'0 0.0
2018-Jun-16 09:00N 37°58' E 023°37'0 0.0
2018-Jun-16 08:30N 37°58' E 023°37'0 0.0
2018-Jun-16 08:00N 37°58' E 023°37'3 6.4
2018-Jun-16 07:30N 37°58' E 023°33'2 4.6
2018-Jun-16 07:00N 37°57' E 023°35'1 2.7
2018-Jun-16 06:30N 37°58' E 023°37'0 0.0
2018-Jun-16 06:00N 37°58' E 023°37'0 0.0
2018-Jun-16 05:30N 37°58' E 023°37'0 0.0
2018-Jun-16 05:00N 37°58' E 023°37'0 0.0
2018-Jun-16 04:30N 37°58' E 023°37'0 0.0
2018-Jun-16 04:00N 37°58' E 023°37'0 0.0
2018-Jun-16 03:30N 37°58' E 023°37'0 0.0
2018-Jun-16 03:00N 37°58' E 023°37'0 0.0
2018-Jun-16 02:30N 37°58' E 023°37'0 0.0
2018-Jun-16 02:00N 37°58' E 023°37'0 0.0
2018-Jun-16 01:30N 37°58' E 023°37'0 0.0
2018-Jun-16 01:00N 37°58' E 023°37'0 0.0
2018-Jun-16 00:30N 37°58' E 023°37'0 0.0
2018-Jun-16 00:00N 37°58' E 023°37'0 0.0
2018-Jun-15 23:30N 37°58' E 023°37'0 0.0
2018-Jun-15 11:06N 37°58' E 023°37'0 0.1
2018-Jun-15 11:00N 37°58' E 023°37'0 0.0
2018-Jun-15 10:30N 37°58' E 023°37'0 0.0
2018-Jun-15 10:00N 37°58' E 023°37'0 0.0
2018-Jun-15 09:30N 37°58' E 023°37'1 2.9
2018-Jun-15 09:00N 37°56' E 023°38'0 0.1
2018-Jun-15 08:31N 37°56' E 023°38'0 0.1
2018-Jun-15 08:00N 37°56' E 023°38'0 0.0
2018-Jun-15 07:30N 37°56' E 023°38'0 0.0
2018-Jun-15 07:00N 37°56' E 023°38'0 0.0
2018-Jun-15 06:30N 37°56' E 023°38'0 0.0
2018-Jun-15 06:00N 37°56' E 023°38'0 0.0
2018-Jun-15 05:30N 37°56' E 023°38'0 0.0
2018-Jun-15 05:00N 37°56' E 023°38'0 0.0
2018-Jun-15 04:30N 37°56' E 023°38'0 0.0
2018-Jun-15 04:00N 37°56' E 023°38'1 1.4
2018-Jun-15 03:30N 37°56' E 023°37'0 0.5
2018-Jun-15 03:00N 37°56' E 023°37'1 2.6
2018-Jun-15 02:30N 37°58' E 023°37'0 0.0
2018-Jun-14 11:08N 37°58' E 023°37'0 0.0
2018-Jun-14 11:00N 37°58' E 023°37'0 0.0
2018-Jun-14 10:31N 37°58' E 023°37'0 0.0
2018-Jun-14 10:00N 37°58' E 023°37'0 0.0
2018-Jun-14 09:30N 37°58' E 023°37'3 6.7
2018-Jun-14 09:00N 37°57' E 023°33'0 0.0
2018-Jun-14 08:30N 37°57' E 023°33'0 0.3
2018-Jun-14 08:00N 37°57' E 023°33'0 0.2
2018-Jun-14 07:30N 37°57' E 023°33'0 0.1
2018-Jun-14 06:41N 37°57' E 023°33'0 0.0
2018-Jun-14 06:14N 37°57' E 023°33'1 2.6
2018-Jun-14 06:00N 37°57' E 023°34'1 0.1
2018-Jun-13 22:06N 37°57' E 023°35'1 8.8
2018-Jun-13 21:56N 37°57' E 023°33'3 8.0
2018-Jun-13 21:30N 38°01' E 023°34'1 2.4
2018-Jun-13 21:00N 38°01' E 023°35'0 0.0
2018-Jun-13 20:29N 38°01' E 023°36'0 0.0
2018-Jun-13 20:00N 38°01' E 023°35'0 0.0
2018-Jun-13 19:26N 38°01' E 023°35'0 0.0
2018-Jun-13 19:00N 38°01' E 023°35'0 0.0
2018-Jun-13 16:57N 38°01' E 023°35'0 0.0
2018-Jun-13 16:30N 38°01' E 023°35'0 0.0
2018-Jun-13 16:00N 38°01' E 023°35'0 0.1
2018-Jun-13 15:30N 38°02' E 023°35'0 0.1
2018-Jun-13 15:00N 38°01' E 023°35'0 0.0
2018-Jun-13 14:31N 38°01' E 023°36'0 0.0
2018-Jun-13 13:58N 38°01' E 023°36'0 0.0
2018-Jun-13 13:30N 38°01' E 023°36'0 0.0
2018-Jun-13 13:00N 38°01' E 023°35'0 0.0
2018-Jun-13 12:29N 38°01' E 023°35'0 0.0
2018-Jun-13 11:59N 38°01' E 023°35'0 0.0
2018-Jun-13 11:30N 38°01' E 023°36'0 0.0
2018-Jun-13 11:00N 38°01' E 023°35'0 0.0
2018-Jun-13 10:30N 38°01' E 023°36'0 0.0
2018-Jun-13 10:00N 38°01' E 023°35'0 0.0
2018-Jun-13 09:30N 38°01' E 023°36'0 0.0
2018-Jun-13 09:00N 38°01' E 023°36'0 0.0
2018-Jun-13 08:31N 38°01' E 023°36'0 0.0
2018-Jun-13 08:00N 38°01' E 023°36'0 0.0
2018-Jun-13 07:31N 38°01' E 023°36'0 0.0
2018-Jun-13 07:00N 38°01' E 023°36'0 0.0
2018-Jun-13 06:30N 38°01' E 023°36'0 0.0
2018-Jun-13 06:00N 38°01' E 023°36'0 0.0
2018-Jun-13 05:30N 38°01' E 023°36'0 0.0
2018-Jun-13 05:00N 38°01' E 023°36'0 0.0
2018-Jun-13 04:30N 38°01' E 023°36'0 0.0
2018-Jun-13 04:00N 38°01' E 023°35'0 0.0
2018-Jun-13 03:23N 38°01' E 023°35'0 0.0
2018-Jun-13 03:00N 38°01' E 023°36'0 0.0
2018-Jun-13 02:27N 38°01' E 023°36'0 0.0
2018-Jun-13 02:00N 38°01' E 023°35'0 0.0
2018-Jun-13 01:29N 38°01' E 023°36'0 0.0
2018-Jun-13 01:00N 38°01' E 023°36'0 0.0
2018-Jun-13 00:26N 38°01' E 023°36'0 0.0
2018-Jun-13 00:00N 38°01' E 023°36'0 0.0
2018-Jun-12 23:30N 38°01' E 023°36'0 0.0
2018-Jun-12 23:00N 38°01' E 023°35'0 0.0
2018-Jun-12 22:31N 38°01' E 023°35'0 0.0
2018-Jun-12 21:56N 38°01' E 023°36'0 0.0
2018-Jun-12 21:30N 38°01' E 023°35'0 0.1
2018-Jun-12 21:00N 38°01' E 023°35'4 7.1
2018-Jun-12 20:30N 37°59' E 023°33'3 5.9
2018-Jun-12 20:00N 37°57' E 023°36'0 0.8
2018-Jun-12 19:30N 37°58' E 023°37'0 0.0
2018-Jun-12 19:00N 37°58' E 023°37'0 0.0
2018-Jun-12 18:31N 37°58' E 023°37'0 0.0
2018-Jun-12 18:00N 37°58' E 023°37'0 0.0
2018-Jun-12 17:30N 37°58' E 023°37'0 0.0
2018-Jun-12 17:01N 37°58' E 023°37'0 0.0
2018-Jun-12 16:31N 37°58' E 023°37'0 0.0
2018-Jun-12 16:01N 37°58' E 023°37'0 0.0
2018-Jun-12 15:31N 37°58' E 023°37'0 0.0
2018-Jun-12 15:00N 37°58' E 023°37'0 0.0
2018-Jun-12 14:30N 37°58' E 023°37'1 2.3
2018-Jun-12 14:00N 37°57' E 023°35'1 1.9
2018-Jun-12 13:31N 37°58' E 023°34'0 0.5
2018-Jun-12 13:01N 37°57' E 023°34'1 2.5
2018-Jun-12 12:30N 37°57' E 023°36'1 1.5
2018-Jun-12 12:01N 37°58' E 023°37'0 0.0
2018-Jun-12 11:30N 37°58' E 023°37'0 0.0
2018-Jun-12 11:01N 37°58' E 023°37'1 1.2
2018-Jun-12 10:31N 37°57' E 023°36'1 1.2
2018-Jun-12 10:01N 37°58' E 023°37'0 0.0
2018-Jun-12 09:30N 37°58' E 023°37'0 0.0
2018-Jun-12 09:00N 37°58' E 023°37'0 0.0
2018-Jun-12 08:30N 37°58' E 023°37'0 0.0
2018-Jun-12 08:00N 37°58' E 023°37'0 0.0
2018-Jun-12 07:30N 37°58' E 023°37'0 0.0
2018-Jun-12 07:00N 37°58' E 023°37'0 0.0
2018-Jun-12 06:31N 37°58' E 023°37'0 0.0
2018-Jun-12 06:01N 37°58' E 023°37'0 0.0
2018-Jun-12 05:30N 37°58' E 023°37'0 0.9
2018-Jun-12 05:00N 37°58' E 023°36'1 2.4
2018-Jun-12 04:30N 37°56' E 023°36'1 2.4
2018-Jun-12 04:00N 37°56' E 023°35'2 4.9
2018-Jun-12 03:30N 37°58' E 023°37'0 0.0
2018-Jun-12 03:00N 37°58' E 023°37'0 0.0
2018-Jun-11 18:00N 37°58' E 023°37'1 2.5
2018-Jun-11 17:31N 37°57' E 023°35'0 0.1
2018-Jun-11 17:01N 37°57' E 023°35'0 0.2
2018-Jun-11 16:30N 37°57' E 023°35'2 3.7
2018-Jun-11 16:01N 37°55' E 023°37'2 3.9
2018-Jun-11 15:30N 37°57' E 023°36'1 1.2
2018-Jun-11 15:00N 37°58' E 023°37'0 0.0
2018-Jun-11 14:30N 37°58' E 023°37'0 0.0
2018-Jun-11 14:01N 37°58' E 023°37'0 0.0
2018-Jun-11 13:31N 37°58' E 023°37'0 0.0
2018-Jun-11 13:01N 37°58' E 023°37'0 0.0
2018-Jun-11 12:31N 37°58' E 023°37'0 0.0
2018-Jun-11 12:00N 37°58' E 023°37'0 0.0
2018-Jun-11 11:31N 37°58' E 023°37'0 0.0
2018-Jun-11 11:00N 37°58' E 023°37'0 0.0
2018-Jun-11 10:31N 37°58' E 023°37'0 0.0
2018-Jun-11 10:01N 37°58' E 023°37'0 0.0
2018-Jun-11 09:30N 37°58' E 023°37'0 0.0
2018-Jun-11 09:00N 37°58' E 023°37'0 0.0
2018-Jun-11 08:30N 37°58' E 023°37'0 0.0
2018-Jun-11 08:00N 37°58' E 023°37'0 0.0
2018-Jun-11 07:30N 37°58' E 023°37'0 0.0
2018-Jun-11 07:01N 37°58' E 023°37'0 0.0
2018-Jun-11 06:30N 37°58' E 023°37'0 0.0
2018-Jun-11 06:00N 37°58' E 023°37'1 1.7
2018-Jun-11 05:30N 37°57' E 023°36'0 0.4
2018-Jun-11 05:01N 37°57' E 023°36'0 0.0
2018-Jun-11 04:30N 37°57' E 023°36'0 0.0
2018-Jun-11 04:00N 37°57' E 023°36'1 2.9
2018-Jun-11 03:30N 37°56' E 023°37'1 1.7
2018-Jun-11 03:00N 37°56' E 023°37'2 4.0
2018-Jun-11 02:30N 37°58' E 023°37'0 0.0
2018-Jun-09 13:20N 37°58' E 023°37'0 0.5
2018-Jun-09 13:01N 37°57' E 023°37'3 6.1
2018-Jun-09 12:30N 37°58' E 023°33'4 7.7
2018-Jun-09 12:01N 38°01' E 023°36'0 0.1
2018-Jun-09 11:30N 38°01' E 023°36'0 0.0
2018-Jun-09 11:00N 38°01' E 023°36'0 0.0
2018-Jun-09 10:30N 38°01' E 023°35'0 0.0
2018-Jun-09 10:00N 38°01' E 023°36'0 0.0
2018-Jun-09 09:30N 38°01' E 023°36'0 0.0
2018-Jun-09 09:00N 38°01' E 023°36'0 0.0
2018-Jun-09 08:30N 38°01' E 023°35'0 0.0
2018-Jun-09 08:00N 38°01' E 023°35'0 0.0
2018-Jun-09 07:30N 38°01' E 023°35'0 0.0
2018-Jun-09 07:00N 38°01' E 023°35'  

Dump ship's entire track history